Buckley Air Force Base
KBKF : now visible

Airfield :











YOU CAN JOIN US ON...

 
LOGIN :

Register | Disclaimer

   EN    FR    IT 

 









Legend :    VFR   Marginal VFR   IFR   Intensive IFR   Very Intensive IFR
Visi :
Ceiling :
>= 8 km
>= 3000ft
5 to 8 km
1000 to 3000 ft
1500m to 5 km
500 to 1000 ft
800 to 1500m
200 to 500 ft
< 800m
< 200 ft
Symbols :   Thunderstorms  Fog  Heavy snow  Heavy precipitations  Wind > 20 kt






- Airport Elevation : 5662 ft


KBKF - Buckley Air Force Base

CURRENT METAR :
  • 180558Z 34014G22KT 10SM SCT120 BKN200 07/M05 A2982 RMK AO2A PK WND 31028/04 SLP074 T00711053 10085 20064 53005

EXPIRED METARs :
  • 180458Z 34021G27KT 10SM SCT110 BKN200 08/M05 A2980 RMK AO2A PK WND 33031/23 SLP071 T00801051
  • 180358Z 32009KT 10SM FEW080 BKN120 BKN200 08/M05 A2981 RMK AO2A SLP084 T00751052

TAF AMD TAF KBKF
Valid from the 18 at 05:00 until the 19 at 07:00 UTC


180538Z 1805/1907 36012G18KT 9999 FEW080 SCT130 BKN200 QNH2982INS
TEMPO 1805/1812 33015G25KT
BECMG 1812/1813 20009KT 9999 SCT080 BKN100 QNH2998INS
BECMG 1905/1906 19009KT 9999 BKN030 OVC050 QNH2996INS TX08/1805Z TNM01/1814Z
KZDV FIR / North America



MET'MAP, your aeronautical weather chart ! - Copyright ORBIFLY December 2007 - Disclaimer

ORBIFLY MET'MAP TEAM :

Programming & Development : Alexandra Zaïnal
Concept & original design : Baudouin d'Aumeries
Assistance for programming : Marc-Olivier Méhu
Technical & hardware support : Manuel Goepfert

Contact : metmap@orbifly.com




SOURCES & CREDITS :

   NOAA       Earth
Advisory